Time;durP1;ratioP1;P1;durP2;ratioP2;P2;SDS_P1;SDS_P2;PMS_P1;PMS_P2;Temp;Humidity;BMP_temperature;BMP_pressure;BME280_temperature;BME280_humidity;BME280_pressure;Samples;Min_cycle;Max_cycle;Signal;HPM_P1;HPM_P2
2022/06/30 00:01:13;;;;;;;13.02;4.22;;;;;;;27.18;48.99;97656.34;4503991;31;20167;-85
2022/06/30 00:03:40;;;;;;;10.38;4.62;;;;;;;27.33;47.85;97659.84;4504185;31;20160;-85
2022/06/30 00:06:08;;;;;;;9.98;4.50;;;;;;;27.06;48.35;97666.53;4502891;31;20126;-85
2022/06/30 00:08:34;;;;;;;11.45;4.40;;;;;;;26.98;47.77;97658.63;4504384;31;20134;-85
2022/06/30 00:11:06;;;;;;;11.18;4.78;;;;;;;27.09;47.21;97655.59;4504019;31;20096;-85
2022/06/30 00:13:37;;;;;;;8.95;4.55;;;;;;;27.33;46.82;97651.91;4504139;31;20081;-85
2022/06/30 00:16:04;;;;;;;9.75;4.43;;;;;;;27.62;46.05;97650.25;4503943;31;20769;-85
2022/06/30 00:18:32;;;;;;;14.90;5.03;;;;;;;27.78;45.54;97650.12;4504236;31;20130;-86
2022/06/30 00:20:59;;;;;;;13.85;4.32;;;;;;;26.90;48.80;97657.88;4503988;31;20151;-86
2022/06/30 00:23:26;;;;;;;14.43;5.00;;;;;;;27.01;51.56;97652.13;4504005;31;20095;-85
2022/06/30 00:25:54;;;;;;;11.57;4.72;;;;;;;25.75;57.75;97649.75;4503763;31;20155;-85
2022/06/30 00:28:21;;;;;;;10.82;4.82;;;;;;;25.81;58.24;97653.53;4502999;31;20183;-85
2022/06/30 00:30:49;;;;;;;10.13;4.97;;;;;;;25.26;59.01;97655.13;4502794;31;20163;-85
2022/06/30 00:33:16;;;;;;;10.15;4.78;;;;;;;25.31;58.86;97646.72;4503895;31;20163;-85
2022/06/30 00:35:44;;;;;;;10.73;5.03;;;;;;;25.14;59.26;97660.91;4503591;31;20171;-85
2022/06/30 00:38:11;;;;;;;11.68;5.55;;;;;;;25.12;58.29;97652.34;4502791;31;20104;-85
2022/06/30 00:40:44;;;;;;;9.90;5.25;;;;;;;25.00;58.08;97652.66;4503758;31;20160;-85
2022/06/30 00:43:12;;;;;;;11.75;4.95;;;;;;;24.98;57.70;97645.87;4503895;31;20464;-85
2022/06/30 00:45:44;;;;;;;9.40;4.70;;;;;;;24.86;58.12;97660.37;4503835;31;20099;-85
2022/06/30 00:48:12;;;;;;;9.75;4.85;;;;;;;24.58;59.66;97657.25;4503929;31;20100;-85
2022/06/30 00:50:39;;;;;;;11.05;5.50;;;;;;;24.18;61.63;97650.88;4503662;31;20391;-85
2022/06/30 00:53:08;;;;;;;10.27;5.40;;;;;;;24.26;61.70;97650.91;4502692;31;20437;-85
2022/06/30 00:55:35;;;;;;;11.68;5.47;;;;;;;24.13;62.62;97650.50;4503443;31;20527;-85
2022/06/30 00:58:05;;;;;;;12.48;5.50;;;;;;;23.18;66.54;97649.72;4502702;31;20155;-85
2022/06/30 01:00:35;;;;;;;11.98;5.45;;;;;;;23.37;66.15;97651.28;4503811;31;20080;-85
2022/06/30 01:03:04;;;;;;;11.25;5.87;;;;;;;23.59;65.12;97652.59;4502812;31;20072;-85
2022/06/30 01:05:31;;;;;;;11.60;5.85;;;;;;;23.70;64.92;97654.13;4502491;31;20171;-85
2022/06/30 01:07:58;;;;;;;14.07;6.12;;;;;;;24.56;61.79;97652.13;4502646;31;20505;-85
2022/06/30 01:13:10;;;;;;;10.05;5.37;;;;;;;24.65;61.02;97645.03;4503844;31;20486;-85
2022/06/30 01:15:38;;;;;;;10.68;5.43;;;;;;;24.43;61.64;97646.50;4502376;31;20119;-85
2022/06/30 01:18:05;;;;;;;11.70;5.53;;;;;;;24.33;63.28;97641.38;4503771;31;20430;-85
2022/06/30 01:20:33;;;;;;;10.55;5.53;;;;;;;24.22;63.62;97639.81;4503620;31;20367;-85
2022/06/30 01:23:02;;;;;;;11.75;5.82;;;;;;;24.35;62.35;97649.97;4503759;31;20075;-85
2022/06/30 01:25:30;;;;;;;12.23;6.03;;;;;;;23.86;62.84;97638.41;4502438;31;20539;-85
2022/06/30 01:27:57;;;;;;;12.70;6.37;;;;;;;24.54;60.74;97640.91;4503795;31;20096;-85
2022/06/30 01:30:24;;;;;;;10.88;5.70;;;;;;;24.91;59.71;97640.44;4503746;31;20150;-85
2022/06/30 01:32:51;;;;;;;13.15;5.72;;;;;;;24.77;60.63;97634.00;4503752;31;20481;-85
2022/06/30 01:35:18;;;;;;;11.27;5.95;;;;;;;24.32;63.01;97629.19;4503586;31;20168;-85
2022/06/30 01:37:50;;;;;;;10.75;5.80;;;;;;;24.20;63.73;97633.06;4502390;31;20191;-85
2022/06/30 01:40:18;;;;;;;13.07;6.00;;;;;;;24.26;63.16;97632.44;4503513;31;20167;-85
2022/06/30 01:42:45;;;;;;;12.57;5.60;;;;;;;24.65;61.57;97631.84;4503708;31;20079;-85
2022/06/30 01:45:12;;;;;;;14.52;5.90;;;;;;;24.43;62.34;97625.41;4503239;31;20122;-85
2022/06/30 01:47:40;;;;;;;17.65;6.95;;;;;;;24.00;64.01;97634.34;4503115;31;20434;-85
2022/06/30 01:50:12;;;;;;;15.02;6.22;;;;;;;23.78;64.68;97631.28;4503592;31;20171;-85
2022/06/30 01:52:39;;;;;;;11.90;6.87;;;;;;;23.47;66.21;97633.56;4502314;31;20121;-85
2022/06/30 01:55:07;;;;;;;14.05;6.85;;;;;;;22.87;68.12;97627.44;4503172;31;20561;-84
2022/06/30 01:57:35;;;;;;;14.05;6.28;;;;;;;23.36;66.12;97636.47;4502261;31;20147;-85
2022/06/30 02:00:04;;;;;;;11.85;6.32;;;;;;;23.48;65.81;97626.50;4503470;31;20175;-85
2022/06/30 02:02:31;;;;;;;12.05;6.65;;;;;;;23.52;65.77;97623.41;4503427;31;20076;-85
2022/06/30 02:04:58;;;;;;;11.88;6.65;;;;;;;23.94;64.57;97627.91;4503196;31;20159;-85
2022/06/30 02:07:25;;;;;;;11.55;6.75;;;;;;;23.86;64.07;97620.78;4503486;31;20156;-85
2022/06/30 02:09:54;;;;;;;15.00;6.80;;;;;;;23.49;65.16;97620.25;4503396;31;20112;-85
2022/06/30 02:15:09;;;;;;;12.50;6.60;;;;;;;23.32;66.13;97614.91;4502253;31;20155;-84
2022/06/30 02:17:37;;;;;;;12.63;6.10;;;;;;;23.63;65.13;97615.28;4503332;31;20104;-85
2022/06/30 02:20:07;;;;;;;12.57;6.43;;;;;;;23.90;64.17;97624.75;4503409;31;20075;-85
2022/06/30 02:22:35;;;;;;;10.75;5.53;;;;;;;23.85;64.36;97627.03;4503222;31;20084;-85
2022/06/30 02:25:03;;;;;;;11.38;6.22;;;;;;;23.68;64.83;97625.31;4501964;31;20100;-85
2022/06/30 02:27:31;;;;;;;11.70;6.55;;;;;;;23.31;66.47;97615.06;4503379;31;20130;-85
2022/06/30 02:29:58;;;;;;;10.45;6.22;;;;;;;22.90;68.37;97619.22;4503220;31;20119;-85
2022/06/30 02:32:25;;;;;;;15.15;5.57;;;;;;;22.92;67.53;97620.72;4503082;31;20076;-85
2022/06/30 02:34:52;;;;;;;15.90;6.32;;;;;;;22.93;66.53;97624.19;4503085;31;20085;-84
2022/06/30 02:37:20;;;;;;;15.32;6.62;;;;;;;22.72;66.70;97625.31;4501922;31;20127;-85
2022/06/30 02:39:46;;;;;;;12.45;6.43;;;;;;;22.50;67.69;97625.75;4503110;31;20175;-85
2022/06/30 02:42:13;;;;;;;13.05;6.22;;;;;;;21.98;70.30;97624.69;4503261;31;20080;-85
2022/06/30 02:44:41;;;;;;;15.73;6.40;;;;;;;22.89;68.11;97628.09;4502077;31;20405;-84
2022/06/30 02:47:08;;;;;;;11.23;6.30;;;;;;;23.09;67.17;97637.47;4503461;31;20604;-84
2022/06/30 02:49:37;;;;;;;18.17;6.57;;;;;;;22.53;69.38;97633.34;4503799;31;20365;-84
2022/06/30 02:52:04;;;;;;;13.82;6.25;;;;;;;21.99;71.91;97642.12;4503506;31;20143;-84
2022/06/30 02:54:31;;;;;;;13.73;6.22;;;;;;;21.57;73.84;97640.78;4503085;31;20130;-85
2022/06/30 02:56:58;;;;;;;13.32;6.70;;;;;;;21.79;72.80;97647.47;4503107;31;20087;-85
2022/06/30 02:59:25;;;;;;;15.13;7.25;;;;;;;21.87;72.52;97647.56;4503160;31;20119;-85
2022/06/30 03:01:52;;;;;;;15.98;7.40;;;;;;;21.59;73.73;97638.87;4501925;31;20155;-85
2022/06/30 03:04:21;;;;;;;15.48;7.10;;;;;;;21.73;73.65;97642.81;4501900;31;20458;-85
2022/06/30 03:06:49;;;;;;;14.18;6.80;;;;;;;21.48;74.89;97636.41;4503084;31;20794;-85
2022/06/30 03:09:16;;;;;;;13.10;6.90;;;;;;;21.45;75.30;97630.63;4502888;31;20104;-85
2022/06/30 03:11:43;;;;;;;11.65;6.78;;;;;;;22.13;72.34;97641.66;4502827;31;20099;-85
2022/06/30 03:14:18;;;;;;;11.57;6.60;;;;;;;22.04;72.64;97645.97;4502919;31;20103;-85
2022/06/30 03:16:46;;;;;;;14.52;6.55;;;;;;;22.48;70.14;97644.31;4502739;31;20115;-85
2022/06/30 03:19:13;;;;;;;10.57;6.07;;;;;;;22.43;69.90;97659.69;4502623;31;20115;-85
2022/06/30 03:21:40;;;;;;;12.95;6.12;;;;;;;22.53;69.55;97670.16;4502717;31;20152;-85
2022/06/30 03:24:08;;;;;;;11.32;6.32;;;;;;;22.63;68.59;97670.91;4502696;31;20131;-85
2022/06/30 03:26:36;;;;;;;11.45;6.30;;;;;;;22.27;69.57;97670.06;4501374;31;20163;-85
2022/06/30 03:29:04;;;;;;;13.23;6.55;;;;;;;22.12;71.03;97667.13;4502631;31;20168;-85
2022/06/30 03:31:31;;;;;;;13.68;6.60;;;;;;;22.19;70.70;97664.72;4501206;31;20092;-85
2022/06/30 03:33:59;;;;;;;14.95;6.43;;;;;;;22.55;69.50;97664.78;4502484;31;20088;-85
2022/06/30 03:36:25;;;;;;;14.75;6.50;;;;;;;22.61;68.50;97672.03;4502433;31;20143;-85
2022/06/30 03:38:52;;;;;;;14.18;6.15;;;;;;;22.56;68.89;97676.94;4502508;31;20175;-85
2022/06/30 03:41:20;;;;;;;10.95;6.15;;;;;;;22.80;67.73;97675.34;4502321;31;20473;-85
2022/06/30 03:43:46;;;;;;;17.60;6.47;;;;;;;22.98;67.12;97680.62;4501008;31;20168;-85
2022/06/30 03:46:14;;;;;;;11.45;5.85;;;;;;;23.27;65.95;97682.97;4502157;31;20167;-85
2022/06/30 03:48:41;;;;;;;12.80;5.87;;;;;;;23.27;66.30;97685.59;4502184;31;20404;-85
2022/06/30 03:51:09;;;;;;;11.57;6.00;;;;;;;23.26;66.35;97683.13;4502151;31;20103;-85
2022/06/30 03:53:36;;;;;;;13.82;6.22;;;;;;;23.57;64.64;97676.41;4502194;31;20093;-85
2022/06/30 03:56:03;;;;;;;13.85;6.65;;;;;;;23.87;63.80;97669.84;4501855;31;20163;-85
2022/06/30 03:58:30;;;;;;;14.80;6.57;;;;;;;23.93;63.33;97678.97;4501927;31;20098;-85
2022/06/30 04:00:57;;;;;;;12.18;6.80;;;;;;;24.63;61.20;97674.22;4501948;31;20100;-85
2022/06/30 04:03:24;;;;;;;11.80;6.57;;;;;;;24.99;59.68;97680.03;4501925;31;20556;-85
2022/06/30 04:05:51;;;;;;;10.45;6.07;;;;;;;25.53;57.66;97679.50;4501752;31;20417;-85
2022/06/30 04:08:18;;;;;;;12.65;6.95;;;;;;;25.35;57.23;97679.69;4501785;31;20104;-85
2022/06/30 04:10:45;;;;;;;15.30;6.70;;;;;;;25.70;56.74;97677.66;4503746;31;20163;-85
2022/06/30 04:13:12;;;;;;;13.68;6.60;;;;;;;26.04;55.20;97683.50;4504146;31;20164;-85
2022/06/30 04:15:39;;;;;;;12.18;6.55;;;;;;;26.12;55.28;97685.28;4504067;31;20175;-85
2022/06/30 04:18:06;;;;;;;16.42;6.05;;;;;;;25.71;56.80;97679.31;4504079;31;20087;-85
2022/06/30 04:20:33;;;;;;;11.98;6.30;;;;;;;25.67;58.67;97674.34;4503991;31;20107;-85
2022/06/30 04:23:00;;;;;;;12.95;6.03;;;;;;;26.22;58.10;97680.59;4504123;31;20140;-86
2022/06/30 04:25:33;;;;;;;13.73;6.43;;;;;;;26.70;55.33;97674.25;4503885;31;20092;-86
2022/06/30 04:28:01;;;;;;;13.65;6.22;;;;;;;27.93;51.58;97677.44;4489928;31;20092;-86
2022/06/30 04:33:15;;;;;;;12.60;5.22;;;;;;;28.75;47.90;97668.41;4503200;31;20135;-86
2022/06/30 04:35:42;;;;;;;12.68;5.28;;;;;;;29.60;45.85;97665.66;4489526;31;20580;-86
2022/06/30 04:38:10;;;;;;;12.13;5.07;;;;;;;28.98;45.16;97660.25;4489241;31;20088;-86
2022/06/30 04:43:24;;;;;;;9.68;4.43;;;;;;;27.70;47.70;97657.34;4503118;31;20104;-86
2022/06/30 04:45:52;;;;;;;13.60;5.00;;;;;;;27.49;47.62;97655.38;4489406;31;20184;-86
2022/06/30 04:48:19;;;;;;;11.27;4.95;;;;;;;27.17;48.60;97659.16;4490004;31;20113;-86
2022/06/30 04:50:46;;;;;;;13.10;5.35;;;;;;;28.11;48.79;97657.66;4489664;31;20149;-86
2022/06/30 04:53:14;;;;;;;11.10;4.50;;;;;;;29.05;45.64;97667.28;4502782;31;20149;-86
2022/06/30 04:55:41;;;;;;;10.57;4.65;;;;;;;28.64;46.43;97652.97;4502382;31;20108;-86
2022/06/30 04:58:08;;;;;;;10.05;4.68;;;;;;;28.15;46.64;97657.09;4502822;31;20457;-86
2022/06/30 05:00:36;;;;;;;9.70;4.85;;;;;;;27.77;46.08;97652.97;4502562;31;20076;-87
2022/06/30 05:03:03;;;;;;;12.50;4.75;;;;;;;27.86;46.75;97659.78;4503805;31;20447;-87
2022/06/30 05:05:30;;;;;;;12.98;4.93;;;;;;;27.67;46.93;97664.66;4503634;31;20437;-87
2022/06/30 05:07:57;;;;;;;10.73;4.90;;;;;;;28.02;45.77;97662.25;4504060;31;20163;-87
2022/06/30 05:10:24;;;;;;;12.63;5.25;;;;;;;28.10;45.60;97662.16;4503755;31;20450;-87
2022/06/30 05:12:51;;;;;;;8.65;4.60;;;;;;;28.85;43.85;97665.41;4503862;31;20163;-87
2022/06/30 05:15:18;;;;;;;10.30;5.22;;;;;;;29.32;42.09;97665.62;4503927;31;20362;-87
2022/06/30 05:17:45;;;;;;;10.93;4.78;;;;;;;29.61;41.82;97664.62;4503823;31;20083;-87
2022/06/30 05:20:12;;;;;;;12.73;4.57;;;;;;;30.36;39.57;97662.13;4503397;31;20104;-86
2022/06/30 05:22:39;;;;;;;10.65;4.80;;;;;;;30.21;38.54;97655.16;4503137;31;20476;-87
2022/06/30 05:27:52;;;;;;;14.00;4.90;;;;;;;30.32;38.77;97661.72;4503922;31;20099;-86
2022/06/30 05:30:19;;;;;;;8.93;4.32;;;;;;;30.49;36.75;97660.31;4503820;31;20148;-86
2022/06/30 05:32:46;;;;;;;9.02;4.12;;;;;;;29.99;37.65;97650.94;4503905;31;20147;-87
2022/06/30 05:35:13;;;;;;;8.43;4.72;;;;;;;31.02;37.10;97664.94;4503605;31;20159;-87
2022/06/30 05:37:40;;;;;;;11.63;4.90;;;;;;;31.32;35.45;97662.72;4503796;31;20092;-87
2022/06/30 05:40:08;;;;;;;8.23;4.05;;;;;;;31.14;36.49;97668.63;4503790;31;20108;-87
2022/06/30 05:42:35;;;;;;;11.32;4.78;;;;;;;30.60;35.46;97672.22;4503962;31;20148;-87
2022/06/30 05:45:03;;;;;;;9.55;4.43;;;;;;;30.77;35.56;97675.38;4503725;31;20164;-87
2022/06/30 05:47:30;;;;;;;10.77;4.70;;;;;;;30.65;35.58;97677.81;4502890;31;20151;-86
2022/06/30 05:49:57;;;;;;;10.88;4.50;;;;;;;31.07;35.03;97676.63;4503895;31;20506;-87
2022/06/30 05:52:24;;;;;;;13.45;4.85;;;;;;;31.50;35.32;97681.56;4503536;31;20108;-87
2022/06/30 05:54:51;;;;;;;8.82;4.20;;;;;;;31.97;34.14;97684.97;4503618;31;20163;-86
2022/06/30 05:57:18;;;;;;;11.35;4.30;;;;;;;31.60;34.35;97681.16;4503399;31;20103;-87
2022/06/30 05:59:45;;;;;;;11.65;5.15;;;;;;;31.93;33.31;97683.75;4503319;31;20398;-87
2022/06/30 06:02:12;;;;;;;12.63;5.25;;;;;;;32.16;33.52;97686.75;4503229;31;20216;-87
2022/06/30 06:04:39;;;;;;;9.27;4.22;;;;;;;32.12;33.27;97687.41;4503207;31;20110;-87
2022/06/30 06:07:06;;;;;;;10.30;4.68;;;;;;;32.28;33.85;97692.25;4489272;31;20108;-89
2022/06/30 06:09:34;;;;;;;10.40;4.78;;;;;;;32.15;33.43;97695.78;4488893;31;20140;-89
2022/06/30 06:12:01;;;;;;;13.95;4.90;;;;;;;31.63;33.90;97689.53;4488500;31;20100;-88
2022/06/30 06:14:28;;;;;;;16.83;5.30;;;;;;;31.81;33.87;97694.25;4503242;31;20171;-89
2022/06/30 06:16:56;;;;;;;12.70;5.00;;;;;;;31.44;35.10;97682.38;4502083;31;20116;-90
2022/06/30 06:19:23;;;;;;;11.45;4.68;;;;;;;31.90;33.72;97693.00;4503065;31;20136;-89
2022/06/30 06:21:50;;;;;;;11.63;4.43;;;;;;;31.86;33.03;97686.44;4488548;31;20122;-87
2022/06/30 06:24:17;;;;;;;16.12;4.70;;;;;;;30.99;35.74;97684.00;4503107;31;20120;-87
2022/06/30 06:26:45;;;;;;;12.52;4.70;;;;;;;31.12;34.60;97693.84;4501815;31;20092;-86
2022/06/30 06:29:14;;;;;;;11.48;4.62;;;;;;;31.03;34.87;97696.69;4503343;31;20084;-84
2022/06/30 06:31:41;;;;;;;11.48;4.45;;;;;;;30.78;35.49;97690.31;4506152;31;20113;-84
2022/06/30 06:34:09;;;;;;;13.30;4.43;;;;;;;30.80;35.60;97681.09;4512594;31;20453;-83
2022/06/30 06:36:36;;;;;;;12.77;4.43;;;;;;;30.67;35.19;97675.78;4505401;31;20568;-82
2022/06/30 06:39:04;;;;;;;13.65;4.68;;;;;;;30.57;35.39;97685.94;4503906;31;20087;-83
2022/06/30 06:41:32;;;;;;;11.57;4.72;;;;;;;30.50;35.72;97675.28;4507623;31;20103;-81
2022/06/30 06:43:59;;;;;;;10.65;4.57;;;;;;;30.36;35.99;97680.78;4512652;31;20163;-83
2022/06/30 06:46:28;;;;;;;11.12;4.68;;;;;;;30.09;36.76;97671.84;4506615;31;20203;-85
2022/06/30 06:49:00;;;;;;;9.70;4.40;;;;;;;30.11;36.10;97675.97;4502911;31;20140;-85
2022/06/30 06:51:28;;;;;;;9.95;4.75;;;;;;;30.19;36.76;97666.97;4502515;31;20100;-85
2022/06/30 06:53:55;;;;;;;8.95;4.03;;;;;;;29.88;37.66;97670.94;4502812;31;20100;-85
2022/06/30 06:56:22;;;;;;;10.00;4.80;;;;;;;30.26;36.91;97673.16;4502806;31;20106;-85
2022/06/30 06:58:57;;;;;;;12.20;4.95;;;;;;;30.08;37.82;97667.56;4502478;31;20098;-86
2022/06/30 07:01:24;;;;;;;8.98;4.60;;;;;;;30.53;36.72;97674.91;4502749;31;20150;-85
2022/06/30 07:03:51;;;;;;;9.75;4.90;;;;;;;29.83;38.13;97667.22;4502752;31;20096;-85
2022/06/30 07:06:18;;;;;;;9.70;4.65;;;;;;;30.21;37.16;97671.09;4502387;31;20088;-85
2022/06/30 07:08:45;;;;;;;8.77;4.45;;;;;;;29.91;37.97;97667.88;4502801;31;20135;-85
2022/06/30 07:11:12;;;;;;;10.60;4.78;;;;;;;30.26;36.22;97677.66;4502918;31;20119;-85
2022/06/30 07:13:39;;;;;;;12.00;4.22;;;;;;;30.23;36.55;97673.56;4502614;31;20556;-86
2022/06/30 07:16:06;;;;;;;10.90;5.10;;;;;;;30.29;35.91;97667.44;4503308;31;20175;-85
2022/06/30 07:18:33;;;;;;;12.80;5.25;;;;;;;30.31;36.86;97676.06;4502592;31;20124;-85
2022/06/30 07:21:00;;;;;;;10.10;4.65;;;;;;;30.55;36.22;97677.34;4502808;31;20130;-85
2022/06/30 07:23:27;;;;;;;13.85;5.15;;;;;;;30.97;36.38;97670.06;4503345;31;20516;-85
2022/06/30 07:25:57;;;;;;;11.27;4.68;;;;;;;31.34;36.50;97668.66;4502613;31;20112;-85
2022/06/30 07:28:24;;;;;;;10.60;5.03;;;;;;;31.64;35.45;97672.50;4502648;31;20103;-85
2022/06/30 07:31:12;;;;;;;16.50;4.68;;;;;;;31.46;35.59;97674.16;4503165;31;20145;-85
2022/06/30 07:33:42;;;;;;;11.68;5.03;;;;;;;32.23;33.86;97674.22;4502463;31;20096;-86
2022/06/30 07:36:10;;;;;;;12.07;5.15;;;;;;;32.34;35.11;97666.59;4502196;31;20152;-86
2022/06/30 07:38:39;;;;;;;9.25;4.53;;;;;;;31.86;34.50;97669.63;4502280;31;20072;-84
2022/06/30 07:41:06;;;;;;;10.48;4.65;;;;;;;32.31;34.93;97670.47;4503153;31;20079;-85
2022/06/30 07:43:33;;;;;;;10.00;4.80;;;;;;;32.01;34.25;97675.53;4502102;31;20100;-85
2022/06/30 07:46:00;;;;;;;7.45;3.85;;;;;;;32.14;34.21;97672.81;4504098;31;20161;-85
2022/06/30 07:48:27;;;;;;;9.57;4.62;;;;;;;31.91;33.87;97669.81;4504290;31;20548;-85
2022/06/30 07:50:55;;;;;;;9.00;4.78;;;;;;;32.17;34.06;97666.22;4504209;31;20454;-85
2022/06/30 07:53:22;;;;;;;8.25;4.22;;;;;;;31.88;33.62;97664.88;4503850;31;20107;-86
2022/06/30 07:55:49;;;;;;;10.38;4.18;;;;;;;32.45;33.04;97672.06;4504097;31;20154;-85
2022/06/30 07:58:16;;;;;;;9.90;4.50;;;;;;;32.42;33.59;97669.00;4504143;31;20128;-86
2022/06/30 08:00:43;;;;;;;11.70;4.70;;;;;;;32.74;33.18;97673.31;4504222;31;20151;-86
2022/06/30 08:03:10;;;;;;;8.40;4.00;;;;;;;32.21;33.42;97662.91;4504210;31;20105;-85
2022/06/30 08:05:37;;;;;;;8.77;4.45;;;;;;;32.37;33.41;97671.50;4504133;31;20088;-85
2022/06/30 08:08:04;;;;;;;8.82;4.50;;;;;;;32.38;32.65;97670.47;4503668;31;20662;-86
2022/06/30 08:10:31;;;;;;;8.13;4.15;;;;;;;32.41;33.37;97667.34;4503987;31;20141;-88
2022/06/30 08:12:58;;;;;;;8.35;3.90;;;;;;;32.75;32.35;97671.47;4504094;31;20100;-86
2022/06/30 08:15:25;;;;;;;8.18;4.10;;;;;;;32.30;32.75;97671.53;4503538;31;20477;-86
2022/06/30 08:17:52;;;;;;;8.48;4.00;;;;;;;32.02;33.21;97668.34;4503948;31;20171;-87
2022/06/30 08:20:19;;;;;;;9.40;4.50;;;;;;;32.32;33.35;97663.28;4504369;31;20156;-87
2022/06/30 08:22:46;;;;;;;8.77;4.10;;;;;;;32.24;33.98;97675.03;4503557;31;20112;-86
2022/06/30 08:25:13;;;;;;;9.25;4.47;;;;;;;32.77;32.60;97675.56;4503888;31;20116;-88
2022/06/30 08:27:40;;;;;;;14.48;5.28;;;;;;;32.62;32.64;97679.56;4503955;31;20135;-87
2022/06/30 08:30:08;;;;;;;10.88;5.43;;;;;;;32.99;32.81;97668.06;4503461;31;20464;-87
2022/06/30 08:32:35;;;;;;;9.30;4.22;;;;;;;32.84;32.61;97680.06;4503948;31;20164;-86
2022/06/30 08:35:02;;;;;;;16.90;5.95;;;;;;;32.91;32.79;97678.19;4503777;31;20171;-87
2022/06/30 08:37:29;;;;;;;10.35;4.43;;;;;;;32.76;32.75;97681.97;4503531;31;20116;-86
2022/06/30 08:42:42;;;;;;;10.02;4.50;;;;;;;32.50;33.11;97668.75;4503431;31;20140;-85
2022/06/30 08:45:17;;;;;;;14.43;5.15;;;;;;;32.45;33.76;97661.41;4503720;31;20123;-86
2022/06/30 08:47:46;;;;;;;9.65;4.20;;;;;;;33.43;32.81;97665.44;4503791;31;20120;-87
2022/06/30 08:50:14;;;;;;;10.27;4.57;;;;;;;32.93;32.60;97655.56;4503388;31;20099;-87
2022/06/30 08:52:52;;;;;;;7.07;4.05;;;;;;;32.77;33.56;97664.91;4503637;31;20088;-87
2022/06/30 08:55:24;;;;;;;8.73;4.75;;;;;;;33.06;32.56;97665.31;4503379;31;20111;-86
2022/06/30 08:57:56;;;;;;;12.93;4.95;;;;;;;32.87;32.43;97677.00;4503496;31;20076;-87
2022/06/30 09:00:23;;;;;;;10.77;4.32;;;;;;;32.52;34.05;97662.16;4502367;31;20159;-86
2022/06/30 09:02:50;;;;;;;8.32;4.70;;;;;;;32.95;33.12;97668.69;4502380;31;20160;-86
2022/06/30 09:05:17;;;;;;;9.80;5.10;;;;;;;33.42;32.35;97658.47;4503163;31;20441;-87
2022/06/30 09:07:44;;;;;;;12.20;4.95;;;;;;;33.63;32.68;97658.03;4503839;31;20122;-86
2022/06/30 09:10:31;;;;;;;;;;;;;;;34.03;32.44;97662.97;4503733;31;20103;-86
2022/06/30 09:13:02;;;;;;;10.80;4.80;;;;;;;33.32;32.51;97651.72;4503671;31;20039;-86
2022/06/30 09:15:31;;;;;;;9.15;4.50;;;;;;;33.09;33.38;97664.91;4503511;31;20163;-87
2022/06/30 09:18:00;;;;;;;9.45;4.80;;;;;;;33.48;32.36;97657.56;4503270;31;20144;-86
2022/06/30 09:20:36;;;;;;;8.43;4.07;;;;;;;33.31;32.97;97663.47;4503424;31;20159;-86
2022/06/30 09:23:19;;;;;;;8.32;4.40;;;;;;;33.22;32.15;97658.63;4503487;31;20171;-85
2022/06/30 09:25:56;;;;;;;9.82;5.00;;;;;;;32.90;33.48;97652.50;4503010;31;20179;-86
2022/06/30 09:28:42;;;;;;;7.87;4.30;;;;;;;33.18;33.35;97660.06;4503435;31;20088;-86
2022/06/30 09:31:32;;;;;;;19.23;5.55;;;;;;;33.05;32.72;97656.47;4503580;31;20116;-86
2022/06/30 09:34:12;;;;;;;9.20;4.78;;;;;;;33.58;31.95;97664.03;4503097;31;20088;-87
2022/06/30 09:36:39;;;;;;;11.32;4.87;;;;;;;34.02;31.59;97667.50;4504395;31;20107;-86
2022/06/30 09:39:08;;;;;;;8.15;4.45;;;;;;;33.54;32.00;97670.06;4503014;31;20118;-86
2022/06/30 09:41:41;;;;;;;9.73;5.12;;;;;;;33.45;32.84;97671.38;4503254;31;20654;-85
2022/06/30 09:44:28;;;;;;;8.82;4.60;;;;;;;33.71;32.61;97670.28;4503525;31;20097;-87
2022/06/30 09:47:00;;;;;;;9.00;4.85;;;;;;;33.64;32.83;97668.53;4502789;31;20167;-86
2022/06/30 09:49:29;;;;;;;8.38;4.47;;;;;;;34.04;32.27;97673.47;4503385;31;20521;-86
2022/06/30 09:51:56;;;;;;;9.40;5.07;;;;;;;34.45;31.32;97674.59;4503250;31;20494;-86
2022/06/30 09:54:23;;;;;;;8.68;4.82;;;;;;;34.73;30.96;97669.47;4502781;31;20112;-84
2022/06/30 09:57:05;;;;;;;9.55;4.85;;;;;;;33.98;32.52;97666.31;4503498;31;20088;-86
2022/06/30 09:59:33;;;;;;;9.10;4.57;;;;;;;34.64;32.06;97672.69;4503330;31;20099;-85
2022/06/30 10:02:06;;;;;;;12.50;5.50;;;;;;;34.92;31.60;97675.63;4502926;31;20112;-86
2022/06/30 10:04:55;;;;;;;10.10;4.95;;;;;;;34.45;33.23;97677.28;4502749;31;20607;-86
2022/06/30 10:07:23;;;;;;;10.10;4.80;;;;;;;34.76;31.48;97677.03;4512476;31;20084;-84
2022/06/30 10:09:51;;;;;;;13.18;5.05;;;;;;;34.76;32.54;97681.59;4513047;31;20060;-83
2022/06/30 10:12:19;;;;;;;11.05;5.03;;;;;;;34.76;31.74;97682.41;4512847;31;20136;-83
2022/06/30 10:14:47;;;;;;;11.55;5.03;;;;;;;34.85;31.37;97666.00;4514580;31;20075;-84
2022/06/30 10:17:19;;;;;;;9.90;4.82;;;;;;;35.23;30.34;97671.81;4516699;31;20107;-85
2022/06/30 10:19:46;;;;;;;10.05;4.75;;;;;;;35.26;31.02;97671.34;4513375;31;20079;-85
2022/06/30 10:22:13;;;;;;;10.35;5.30;;;;;;;35.15;32.01;97674.84;4511550;31;20100;-84
2022/06/30 10:24:41;;;;;;;9.38;4.50;;;;;;;35.72;29.88;97668.91;4510108;31;20077;-85
2022/06/30 10:27:14;;;;;;;10.75;5.07;;;;;;;35.17;31.54;97675.41;4514218;31;20075;-84
2022/06/30 10:29:48;;;;;;;8.68;5.03;;;;;;;35.66;30.18;97668.00;4508572;31;20100;-84
2022/06/30 10:32:22;;;;;;;11.30;4.90;;;;;;;35.82;30.18;97666.44;4506335;31;20108;-84
2022/06/30 10:34:59;;;;;;;12.65;5.30;;;;;;;35.96;30.10;97665.19;4513438;31;20068;-84
2022/06/30 10:37:34;;;;;;;10.13;4.55;;;;;;;36.55;28.87;97657.75;4510472;31;20768;-84
2022/06/30 10:40:09;;;;;;;9.43;5.07;;;;;;;36.66;28.69;97658.75;4508783;31;20166;-84
2022/06/30 10:42:45;;;;;;;10.93;5.28;;;;;;;35.45;30.45;97653.31;4509418;31;20108;-85
2022/06/30 10:45:36;;;;;;;11.40;5.10;;;;;;;34.86;32.42;97664.97;4512834;31;20120;-85
2022/06/30 10:48:05;;;;;;;12.40;5.00;;;;;;;34.88;32.18;97668.25;4512662;31;20166;-85
2022/06/30 10:50:35;;;;;;;9.27;5.05;;;;;;;35.31;31.95;97658.06;4508861;31;20105;-84
2022/06/30 10:53:03;;;;;;;10.98;5.07;;;;;;;34.91;32.20;97663.25;4511769;31;20091;-85
2022/06/30 10:55:47;;;;;;;11.27;5.03;;;;;;;35.13;32.49;97660.84;4513019;31;20086;-84
2022/06/30 10:58:14;;;;;;;10.23;5.20;;;;;;;34.58;32.83;97669.09;4512211;31;20159;-85
2022/06/30 11:00:42;;;;;;;10.82;5.30;;;;;;;34.68;32.67;97671.22;4511135;31;20112;-84
2022/06/30 11:03:09;;;;;;;10.23;5.20;;;;;;;34.43;32.24;97656.09;4515363;31;20131;-83
2022/06/30 11:05:53;;;;;;;11.18;4.82;;;;;;;35.35;31.67;97661.91;4516206;31;20122;-83
2022/06/30 11:08:39;;;;;;;10.20;4.72;;;;;;;35.72;30.23;97650.94;4514778;31;20115;-83
2022/06/30 11:11:27;;;;;;;9.32;5.25;;;;;;;36.48;29.04;97652.53;4510779;31;20084;-83
2022/06/30 11:14:03;;;;;;;13.20;5.05;;;;;;;36.22;30.11;97658.44;4499701;31;20100;-83
2022/06/30 11:16:31;;;;;;;11.32;5.12;;;;;;;36.53;30.03;97651.81;4504637;31;20592;-82
2022/06/30 11:18:58;;;;;;;11.93;5.15;;;;;;;36.52;30.58;97652.06;4506178;31;20117;-83
2022/06/30 11:21:28;;;;;;;12.75;5.28;;;;;;;36.46;29.39;97646.56;4509149;31;20123;-83
2022/06/30 11:23:58;;;;;;;10.02;4.82;;;;;;;36.20;30.62;97647.13;4512684;31;20100;-81
2022/06/30 11:29:16;;;;;;;11.85;5.62;;;;;;;35.46;32.84;97641.53;4683579;26;20158;-83
2022/06/30 11:31:43;;;;;;;12.32;5.30;;;;;;;35.67;31.53;97633.94;4510022;31;20080;-82
2022/06/30 11:34:20;;;;;;;11.85;4.78;;;;;;;36.15;30.37;97647.81;4515659;31;20083;-82
2022/06/30 11:36:48;;;;;;;11.00;4.93;;;;;;;36.51;30.02;97653.94;4516667;31;20074;-83
2022/06/30 11:39:18;;;;;;;12.98;5.25;;;;;;;36.33;29.82;97646.84;4513085;31;20059;-84
2022/06/30 11:44:28;;;;;;;10.90;5.28;;;;;;;36.68;29.79;97641.31;4612774;26;20124;-84
2022/06/30 11:46:59;;;;;;;11.23;4.72;;;;;;;36.55;29.53;97635.44;4515677;31;20075;-84
2022/06/30 11:49:47;;;;;;;9.35;5.15;;;;;;;36.84;29.50;97638.94;4515024;31;20110;-84
2022/06/30 11:52:37;;;;;;;11.07;5.00;;;;;;;36.64;29.66;97644.75;4511432;31;20155;-84
2022/06/30 11:55:09;;;;;;;8.48;4.85;;;;;;;36.22;30.06;97639.63;4519783;31;20118;-84
2022/06/30 11:57:39;;;;;;;9.40;5.30;;;;;;;36.96;28.40;97642.34;4519777;31;20159;-84